sensor_id;sensor_type;location;lat;lon;timestamp;P1;durP1;ratioP1;P2;durP2;ratioP2
40983;SDS011;26714;51.332;12.406;2023-08-31T00:02:04;3.05;;;1.40;;
40983;SDS011;26714;51.332;12.406;2023-08-31T00:04:32;2.67;;;1.25;;
40983;SDS011;26714;51.332;12.406;2023-08-31T00:06:58;2.00;;;1.00;;
40983;SDS011;26714;51.332;12.406;2023-08-31T00:09:25;2.88;;;1.42;;
40983;SDS011;26714;51.332;12.406;2023-08-31T00:11:51;2.38;;;1.20;;
40983;SDS011;26714;51.332;12.406;2023-08-31T00:14:17;2.25;;;1.02;;
40983;SDS011;26714;51.332;12.406;2023-08-31T00:16:42;3.35;;;1.35;;
40983;SDS011;26714;51.332;12.406;2023-08-31T00:19:08;3.00;;;1.10;;
40983;SDS011;26714;51.332;12.406;2023-08-31T00:21:34;2.85;;;1.27;;
40983;SDS011;26714;51.332;12.406;2023-08-31T00:24:01;2.58;;;1.30;;
40983;SDS011;26714;51.332;12.406;2023-08-31T00:26:26;2.97;;;1.42;;
40983;SDS011;26714;51.332;12.406;2023-08-31T00:28:52;3.55;;;1.38;;
40983;SDS011;26714;51.332;12.406;2023-08-31T00:31:20;4.40;;;1.33;;
40983;SDS011;26714;51.332;12.406;2023-08-31T00:33:46;8.63;;;1.33;;
40983;SDS011;26714;51.332;12.406;2023-08-31T00:36:14;2.08;;;1.08;;
40983;SDS011;26714;51.332;12.406;2023-08-31T00:38:39;3.65;;;1.35;;
40983;SDS011;26714;51.332;12.406;2023-08-31T00:41:07;2.88;;;1.38;;
40983;SDS011;26714;51.332;12.406;2023-08-31T00:43:33;3.65;;;1.00;;
40983;SDS011;26714;51.332;12.406;2023-08-31T00:45:59;4.13;;;1.50;;
40983;SDS011;26714;51.332;12.406;2023-08-31T00:48:24;6.28;;;1.17;;
40983;SDS011;26714;51.332;12.406;2023-08-31T00:50:50;3.63;;;1.30;;
40983;SDS011;26714;51.332;12.406;2023-08-31T00:53:19;3.35;;;1.33;;
40983;SDS011;26714;51.332;12.406;2023-08-31T00:58:10;5.57;;;1.27;;
40983;SDS011;26714;51.332;12.406;2023-08-31T01:03:55;5.07;;;1.50;;
40983;SDS011;26714;51.332;12.406;2023-08-31T01:12:40;3.08;;;1.38;;
40983;SDS011;26714;51.332;12.406;2023-08-31T01:14:38;2.30;;;1.30;;
40983;SDS011;26714;51.332;12.406;2023-08-31T01:17:07;2.60;;;1.17;;
40983;SDS011;26714;51.332;12.406;2023-08-31T01:19:38;2.67;;;1.27;;
40983;SDS011;26714;51.332;12.406;2023-08-31T01:22:07;5.57;;;1.20;;
40983;SDS011;26714;51.332;12.406;2023-08-31T01:24:36;2.35;;;1.20;;
40983;SDS011;26714;51.332;12.406;2023-08-31T01:27:02;2.60;;;1.20;;
40983;SDS011;26714;51.332;12.406;2023-08-31T01:29:29;3.17;;;1.30;;
40983;SDS011;26714;51.332;12.406;2023-08-31T01:31:55;2.08;;;1.10;;
40983;SDS011;26714;51.332;12.406;2023-08-31T01:34:21;3.47;;;1.02;;
40983;SDS011;26714;51.332;12.406;2023-08-31T01:36:47;2.08;;;0.95;;
40983;SDS011;26714;51.332;12.406;2023-08-31T01:39:15;1.73;;;1.10;;
40983;SDS011;26714;51.332;12.406;2023-08-31T01:41:46;3.72;;;1.08;;
40983;SDS011;26714;51.332;12.406;2023-08-31T01:44:15;3.90;;;0.95;;
40983;SDS011;26714;51.332;12.406;2023-08-31T01:46:45;2.42;;;1.00;;
40983;SDS011;26714;51.332;12.406;2023-08-31T01:49:11;2.42;;;1.08;;
40983;SDS011;26714;51.332;12.406;2023-08-31T01:51:36;2.72;;;0.90;;
40983;SDS011;26714;51.332;12.406;2023-08-31T01:54:02;1.83;;;1.08;;
40983;SDS011;26714;51.332;12.406;2023-08-31T01:56:27;3.92;;;1.30;;
40983;SDS011;26714;51.332;12.406;2023-08-31T01:58:54;2.00;;;1.10;;
40983;SDS011;26714;51.332;12.406;2023-08-31T02:01:19;2.72;;;0.90;;
40983;SDS011;26714;51.332;12.406;2023-08-31T02:03:46;2.63;;;1.02;;
40983;SDS011;26714;51.332;12.406;2023-08-31T02:06:11;2.92;;;1.00;;
40983;SDS011;26714;51.332;12.406;2023-08-31T02:08:38;3.75;;;0.95;;
40983;SDS011;26714;51.332;12.406;2023-08-31T02:11:04;2.30;;;1.08;;
40983;SDS011;26714;51.332;12.406;2023-08-31T02:13:30;2.13;;;0.85;;
40983;SDS011;26714;51.332;12.406;2023-08-31T02:15:55;2.13;;;0.98;;
40983;SDS011;26714;51.332;12.406;2023-08-31T02:18:21;3.83;;;0.98;;
40983;SDS011;26714;51.332;12.406;2023-08-31T02:20:46;2.70;;;1.20;;
40983;SDS011;26714;51.332;12.406;2023-08-31T02:23:13;3.78;;;1.08;;
40983;SDS011;26714;51.332;12.406;2023-08-31T02:25:38;5.80;;;2.65;;
40983;SDS011;26714;51.332;12.406;2023-08-31T02:28:06;1.95;;;1.13;;
40983;SDS011;26714;51.332;12.406;2023-08-31T02:30:32;4.22;;;1.00;;
40983;SDS011;26714;51.332;12.406;2023-08-31T02:32:57;1.50;;;0.88;;
40983;SDS011;26714;51.332;12.406;2023-08-31T02:35:22;1.40;;;0.80;;
40983;SDS011;26714;51.332;12.406;2023-08-31T02:37:48;2.60;;;1.30;;
40983;SDS011;26714;51.332;12.406;2023-08-31T02:40:14;2.08;;;1.13;;
40983;SDS011;26714;51.332;12.406;2023-08-31T02:42:41;1.67;;;1.10;;
40983;SDS011;26714;51.332;12.406;2023-08-31T02:45:07;2.83;;;1.33;;
40983;SDS011;26714;51.332;12.406;2023-08-31T02:47:33;2.80;;;1.13;;
40983;SDS011;26714;51.332;12.406;2023-08-31T02:49:58;2.97;;;1.30;;
40983;SDS011;26714;51.332;12.406;2023-08-31T02:52:25;2.92;;;1.52;;
40983;SDS011;26714;51.332;12.406;2023-08-31T02:54:51;7.13;;;1.55;;
40983;SDS011;26714;51.332;12.406;2023-08-31T02:57:17;2.90;;;1.73;;
40983;SDS011;26714;51.332;12.406;2023-08-31T02:59:45;5.10;;;1.73;;
40983;SDS011;26714;51.332;12.406;2023-08-31T03:02:13;4.85;;;1.70;;
40983;SDS011;26714;51.332;12.406;2023-08-31T03:04:44;3.95;;;1.80;;
40983;SDS011;26714;51.332;12.406;2023-08-31T03:07:10;4.20;;;2.10;;
40983;SDS011;26714;51.332;12.406;2023-08-31T03:09:39;6.80;;;1.75;;
40983;SDS011;26714;51.332;12.406;2023-08-31T03:12:06;4.03;;;1.80;;
40983;SDS011;26714;51.332;12.406;2023-08-31T03:14:33;6.05;;;2.00;;
40983;SDS011;26714;51.332;12.406;2023-08-31T03:16:58;3.25;;;1.60;;
40983;SDS011;26714;51.332;12.406;2023-08-31T03:19:24;3.30;;;1.75;;
40983;SDS011;26714;51.332;12.406;2023-08-31T03:21:50;4.22;;;1.85;;
40983;SDS011;26714;51.332;12.406;2023-08-31T03:24:15;5.25;;;2.10;;
40983;SDS011;26714;51.332;12.406;2023-08-31T03:26:41;5.45;;;1.85;;
40983;SDS011;26714;51.332;12.406;2023-08-31T03:29:07;3.33;;;1.80;;
40983;SDS011;26714;51.332;12.406;2023-08-31T03:31:33;4.35;;;2.20;;
40983;SDS011;26714;51.332;12.406;2023-08-31T03:33:59;5.07;;;2.22;;
40983;SDS011;26714;51.332;12.406;2023-08-31T03:36:24;3.92;;;2.17;;
40983;SDS011;26714;51.332;12.406;2023-08-31T03:38:50;4.82;;;2.67;;
40983;SDS011;26714;51.332;12.406;2023-08-31T03:41:16;4.30;;;2.30;;
40983;SDS011;26714;51.332;12.406;2023-08-31T03:43:41;4.95;;;2.10;;
40983;SDS011;26714;51.332;12.406;2023-08-31T03:46:07;7.10;;;2.50;;
40983;SDS011;26714;51.332;12.406;2023-08-31T03:48:34;5.38;;;3.00;;
40983;SDS011;26714;51.332;12.406;2023-08-31T03:50:59;4.35;;;2.20;;
40983;SDS011;26714;51.332;12.406;2023-08-31T03:53:25;6.50;;;2.45;;
40983;SDS011;26714;51.332;12.406;2023-08-31T03:55:55;5.93;;;2.47;;
40983;SDS011;26714;51.332;12.406;2023-08-31T03:58:22;5.60;;;2.80;;
40983;SDS011;26714;51.332;12.406;2023-08-31T04:00:50;5.20;;;3.17;;
40983;SDS011;26714;51.332;12.406;2023-08-31T04:03:18;6.65;;;3.70;;
40983;SDS011;26714;51.332;12.406;2023-08-31T04:05:43;6.90;;;3.88;;
40983;SDS011;26714;51.332;12.406;2023-08-31T04:08:10;7.28;;;3.60;;
40983;SDS011;26714;51.332;12.406;2023-08-31T04:10:36;6.03;;;3.53;;
40983;SDS011;26714;51.332;12.406;2023-08-31T04:13:02;6.40;;;2.92;;
40983;SDS011;26714;51.332;12.406;2023-08-31T04:15:28;5.00;;;3.10;;
40983;SDS011;26714;51.332;12.406;2023-08-31T04:17:53;6.35;;;3.60;;
40983;SDS011;26714;51.332;12.406;2023-08-31T04:20:19;6.65;;;3.10;;
40983;SDS011;26714;51.332;12.406;2023-08-31T04:22:45;5.28;;;3.38;;
40983;SDS011;26714;51.332;12.406;2023-08-31T04:25:10;7.22;;;3.70;;
40983;SDS011;26714;51.332;12.406;2023-08-31T04:27:36;8.38;;;4.03;;
40983;SDS011;26714;51.332;12.406;2023-08-31T04:32:33;8.80;;;3.83;;
40983;SDS011;26714;51.332;12.406;2023-08-31T04:34:58;7.32;;;4.30;;
40983;SDS011;26714;51.332;12.406;2023-08-31T04:37:24;10.02;;;4.60;;
40983;SDS011;26714;51.332;12.406;2023-08-31T04:39:49;7.57;;;4.43;;
40983;SDS011;26714;51.332;12.406;2023-08-31T04:42:15;7.45;;;4.30;;
40983;SDS011;26714;51.332;12.406;2023-08-31T04:47:12;8.93;;;4.60;;
40983;SDS011;26714;51.332;12.406;2023-08-31T04:49:38;7.50;;;4.57;;
40983;SDS011;26714;51.332;12.406;2023-08-31T04:52:03;8.60;;;4.40;;
40983;SDS011;26714;51.332;12.406;2023-08-31T04:54:30;9.70;;;4.55;;
40983;SDS011;26714;51.332;12.406;2023-08-31T04:56:55;8.50;;;4.82;;
40983;SDS011;26714;51.332;12.406;2023-08-31T04:59:21;8.77;;;4.85;;
40983;SDS011;26714;51.332;12.406;2023-08-31T05:01:46;8.20;;;4.60;;
40983;SDS011;26714;51.332;12.406;2023-08-31T05:04:12;12.88;;;5.38;;
40983;SDS011;26714;51.332;12.406;2023-08-31T05:06:38;7.35;;;4.72;;
40983;SDS011;26714;51.332;12.406;2023-08-31T05:09:04;11.25;;;5.43;;
40983;SDS011;26714;51.332;12.406;2023-08-31T05:11:31;8.85;;;4.85;;
40983;SDS011;26714;51.332;12.406;2023-08-31T05:13:57;9.90;;;5.03;;
40983;SDS011;26714;51.332;12.406;2023-08-31T05:16:24;11.23;;;6.03;;
40983;SDS011;26714;51.332;12.406;2023-08-31T05:18:49;13.40;;;4.93;;
40983;SDS011;26714;51.332;12.406;2023-08-31T05:21:15;10.10;;;5.28;;
40983;SDS011;26714;51.332;12.406;2023-08-31T05:23:40;10.20;;;4.93;;
40983;SDS011;26714;51.332;12.406;2023-08-31T05:26:06;9.95;;;5.28;;
40983;SDS011;26714;51.332;12.406;2023-08-31T05:28:31;10.38;;;5.18;;
40983;SDS011;26714;51.332;12.406;2023-08-31T05:30:57;15.45;;;5.70;;
40983;SDS011;26714;51.332;12.406;2023-08-31T05:33:25;10.75;;;5.72;;
40983;SDS011;26714;51.332;12.406;2023-08-31T05:35:52;10.80;;;5.88;;
40983;SDS011;26714;51.332;12.406;2023-08-31T05:38:18;9.15;;;5.60;;
40983;SDS011;26714;51.332;12.406;2023-08-31T05:40:43;13.48;;;5.72;;
40983;SDS011;26714;51.332;12.406;2023-08-31T05:43:11;11.52;;;5.82;;
40983;SDS011;26714;51.332;12.406;2023-08-31T05:45:37;9.52;;;5.35;;
40983;SDS011;26714;51.332;12.406;2023-08-31T05:48:03;12.50;;;5.45;;
40983;SDS011;26714;51.332;12.406;2023-08-31T05:50:29;9.98;;;5.88;;
40983;SDS011;26714;51.332;12.406;2023-08-31T05:52:55;11.15;;;5.70;;
40983;SDS011;26714;51.332;12.406;2023-08-31T05:55:23;13.38;;;5.70;;
40983;SDS011;26714;51.332;12.406;2023-08-31T05:57:48;11.57;;;5.95;;
40983;SDS011;26714;51.332;12.406;2023-08-31T06:00:14;12.18;;;6.18;;
40983;SDS011;26714;51.332;12.406;2023-08-31T06:02:40;8.35;;;5.78;;
40983;SDS011;26714;51.332;12.406;2023-08-31T06:05:06;13.23;;;6.63;;
40983;SDS011;26714;51.332;12.406;2023-08-31T06:07:32;12.02;;;5.72;;
40983;SDS011;26714;51.332;12.406;2023-08-31T06:09:57;12.30;;;6.28;;
40983;SDS011;26714;51.332;12.406;2023-08-31T06:12:23;12.48;;;6.45;;
40983;SDS011;26714;51.332;12.406;2023-08-31T06:14:48;11.05;;;6.18;;
40983;SDS011;26714;51.332;12.406;2023-08-31T06:17:14;12.93;;;6.25;;
40983;SDS011;26714;51.332;12.406;2023-08-31T06:19:40;11.60;;;5.85;;
40983;SDS011;26714;51.332;12.406;2023-08-31T06:22:06;10.65;;;6.05;;
40983;SDS011;26714;51.332;12.406;2023-08-31T06:24:32;10.23;;;5.63;;
40983;SDS011;26714;51.332;12.406;2023-08-31T06:26:58;8.77;;;5.88;;
40983;SDS011;26714;51.332;12.406;2023-08-31T06:29:23;11.05;;;5.72;;
40983;SDS011;26714;51.332;12.406;2023-08-31T06:31:49;14.07;;;5.55;;
40983;SDS011;26714;51.332;12.406;2023-08-31T06:34:14;8.80;;;5.57;;
40983;SDS011;26714;51.332;12.406;2023-08-31T06:36:40;12.60;;;5.47;;
40983;SDS011;26714;51.332;12.406;2023-08-31T06:39:06;12.10;;;5.18;;
40983;SDS011;26714;51.332;12.406;2023-08-31T06:41:31;12.30;;;5.45;;
40983;SDS011;26714;51.332;12.406;2023-08-31T06:43:57;11.75;;;4.75;;
40983;SDS011;26714;51.332;12.406;2023-08-31T06:46:22;12.65;;;4.95;;
40983;SDS011;26714;51.332;12.406;2023-08-31T06:48:51;11.38;;;6.45;;
40983;SDS011;26714;51.332;12.406;2023-08-31T06:51:16;10.93;;;5.20;;
40983;SDS011;26714;51.332;12.406;2023-08-31T06:53:43;9.15;;;5.15;;
40983;SDS011;26714;51.332;12.406;2023-08-31T06:56:08;6.95;;;4.38;;
40983;SDS011;26714;51.332;12.406;2023-08-31T06:58:34;8.50;;;4.97;;
40983;SDS011;26714;51.332;12.406;2023-08-31T07:01:00;12.25;;;4.82;;
40983;SDS011;26714;51.332;12.406;2023-08-31T07:03:27;10.57;;;4.95;;
40983;SDS011;26714;51.332;12.406;2023-08-31T07:05:52;9.52;;;5.38;;
40983;SDS011;26714;51.332;12.406;2023-08-31T07:08:18;8.60;;;3.78;;
40983;SDS011;26714;51.332;12.406;2023-08-31T07:10:49;8.68;;;4.13;;
40983;SDS011;26714;51.332;12.406;2023-08-31T07:13:15;8.65;;;3.78;;
40983;SDS011;26714;51.332;12.406;2023-08-31T07:15:41;10.27;;;4.25;;
40983;SDS011;26714;51.332;12.406;2023-08-31T07:18:06;7.72;;;4.45;;
40983;SDS011;26714;51.332;12.406;2023-08-31T07:20:33;7.90;;;3.90;;
40983;SDS011;26714;51.332;12.406;2023-08-31T07:22:59;9.95;;;3.72;;
40983;SDS011;26714;51.332;12.406;2023-08-31T07:25:28;9.90;;;4.85;;
40983;SDS011;26714;51.332;12.406;2023-08-31T07:27:54;9.52;;;4.75;;
40983;SDS011;26714;51.332;12.406;2023-08-31T07:30:19;9.02;;;4.80;;
40983;SDS011;26714;51.332;12.406;2023-08-31T07:32:45;8.88;;;4.18;;
40983;SDS011;26714;51.332;12.406;2023-08-31T07:35:10;8.88;;;4.07;;
40983;SDS011;26714;51.332;12.406;2023-08-31T07:37:36;8.40;;;4.47;;
40983;SDS011;26714;51.332;12.406;2023-08-31T07:43:14;8.73;;;3.78;;
40983;SDS011;26714;51.332;12.406;2023-08-31T07:45:40;7.30;;;3.97;;
40983;SDS011;26714;51.332;12.406;2023-08-31T07:48:08;9.20;;;4.18;;
40983;SDS011;26714;51.332;12.406;2023-08-31T07:50:34;9.88;;;5.40;;
40983;SDS011;26714;51.332;12.406;2023-08-31T07:53:02;8.82;;;3.97;;
40983;SDS011;26714;51.332;12.406;2023-08-31T07:55:29;7.22;;;3.80;;
40983;SDS011;26714;51.332;12.406;2023-08-31T07:57:54;7.15;;;3.75;;
40983;SDS011;26714;51.332;12.406;2023-08-31T08:00:20;8.40;;;3.97;;
40983;SDS011;26714;51.332;12.406;2023-08-31T08:02:45;9.55;;;4.20;;
40983;SDS011;26714;51.332;12.406;2023-08-31T08:05:11;14.52;;;4.32;;
40983;SDS011;26714;51.332;12.406;2023-08-31T08:07:37;9.55;;;4.25;;
40983;SDS011;26714;51.332;12.406;2023-08-31T08:10:02;7.40;;;3.70;;
40983;SDS011;26714;51.332;12.406;2023-08-31T08:12:36;9.55;;;3.83;;
40983;SDS011;26714;51.332;12.406;2023-08-31T08:15:02;8.93;;;3.70;;
40983;SDS011;26714;51.332;12.406;2023-08-31T08:17:29;8.45;;;3.53;;
40983;SDS011;26714;51.332;12.406;2023-08-31T08:19:55;8.07;;;4.45;;
40983;SDS011;26714;51.332;12.406;2023-08-31T08:22:20;7.00;;;3.53;;
40983;SDS011;26714;51.332;12.406;2023-08-31T08:24:46;9.00;;;3.90;;
40983;SDS011;26714;51.332;12.406;2023-08-31T08:27:11;5.88;;;3.70;;
40983;SDS011;26714;51.332;12.406;2023-08-31T08:29:37;7.22;;;2.88;;
40983;SDS011;26714;51.332;12.406;2023-08-31T08:32:03;5.55;;;3.05;;
40983;SDS011;26714;51.332;12.406;2023-08-31T08:34:28;6.28;;;2.70;;
40983;SDS011;26714;51.332;12.406;2023-08-31T08:36:54;8.38;;;3.78;;
40983;SDS011;26714;51.332;12.406;2023-08-31T08:39:19;8.93;;;3.53;;
40983;SDS011;26714;51.332;12.406;2023-08-31T08:41:45;8.55;;;3.65;;
40983;SDS011;26714;51.332;12.406;2023-08-31T08:44:11;8.88;;;3.13;;
40983;SDS011;26714;51.332;12.406;2023-08-31T08:46:40;7.45;;;3.35;;
40983;SDS011;26714;51.332;12.406;2023-08-31T08:49:06;22.05;;;4.82;;
40983;SDS011;26714;51.332;12.406;2023-08-31T08:51:35;7.05;;;3.45;;
40983;SDS011;26714;51.332;12.406;2023-08-31T08:54:00;7.55;;;3.25;;
40983;SDS011;26714;51.332;12.406;2023-08-31T08:56:26;8.45;;;3.55;;
40983;SDS011;26714;51.332;12.406;2023-08-31T08:58:52;8.93;;;3.65;;
40983;SDS011;26714;51.332;12.406;2023-08-31T09:01:18;10.85;;;4.35;;
40983;SDS011;26714;51.332;12.406;2023-08-31T09:03:48;6.78;;;3.25;;
40983;SDS011;26714;51.332;12.406;2023-08-31T09:06:13;8.68;;;3.42;;
40983;SDS011;26714;51.332;12.406;2023-08-31T09:08:41;9.85;;;3.10;;
40983;SDS011;26714;51.332;12.406;2023-08-31T09:11:07;5.97;;;3.47;;
40983;SDS011;26714;51.332;12.406;2023-08-31T09:13:32;7.18;;;2.53;;
40983;SDS011;26714;51.332;12.406;2023-08-31T09:16:01;11.13;;;2.95;;
40983;SDS011;26714;51.332;12.406;2023-08-31T09:18:30;7.10;;;3.10;;
40983;SDS011;26714;51.332;12.406;2023-08-31T09:20:57;7.60;;;2.97;;
40983;SDS011;26714;51.332;12.406;2023-08-31T09:23:23;8.10;;;2.72;;
40983;SDS011;26714;51.332;12.406;2023-08-31T09:25:49;7.05;;;3.28;;
40983;SDS011;26714;51.332;12.406;2023-08-31T09:28:16;6.18;;;2.83;;
40983;SDS011;26714;51.332;12.406;2023-08-31T09:30:42;9.63;;;4.03;;
40983;SDS011;26714;51.332;12.406;2023-08-31T09:33:08;6.82;;;3.17;;
40983;SDS011;26714;51.332;12.406;2023-08-31T09:35:38;5.20;;;2.30;;
40983;SDS011;26714;51.332;12.406;2023-08-31T09:38:04;5.60;;;2.10;;
40983;SDS011;26714;51.332;12.406;2023-08-31T09:40:32;4.15;;;1.50;;
40983;SDS011;26714;51.332;12.406;2023-08-31T09:42:57;5.85;;;2.40;;
40983;SDS011;26714;51.332;12.406;2023-08-31T09:45:26;6.53;;;1.77;;
40983;SDS011;26714;51.332;12.406;2023-08-31T09:50:21;2.38;;;1.30;;
40983;SDS011;26714;51.332;12.406;2023-08-31T09:52:48;2.88;;;1.27;;
40983;SDS011;26714;51.332;12.406;2023-08-31T09:55:16;2.90;;;1.33;;
40983;SDS011;26714;51.332;12.406;2023-08-31T09:57:43;2.65;;;1.05;;
40983;SDS011;26714;51.332;12.406;2023-08-31T10:00:10;2.90;;;1.10;;
40983;SDS011;26714;51.332;12.406;2023-08-31T10:02:36;2.53;;;1.25;;
40983;SDS011;26714;51.332;12.406;2023-08-31T10:05:01;4.50;;;1.38;;
40983;SDS011;26714;51.332;12.406;2023-08-31T10:07:28;4.45;;;1.30;;
40983;SDS011;26714;51.332;12.406;2023-08-31T10:09:53;3.55;;;2.30;;
40983;SDS011;26714;51.332;12.406;2023-08-31T10:12:20;4.72;;;1.73;;
40983;SDS011;26714;51.332;12.406;2023-08-31T10:14:46;4.88;;;1.92;;
40983;SDS011;26714;51.332;12.406;2023-08-31T10:17:14;5.05;;;2.08;;
40983;SDS011;26714;51.332;12.406;2023-08-31T10:19:39;5.72;;;1.70;;
40983;SDS011;26714;51.332;12.406;2023-08-31T10:22:05;5.13;;;2.40;;
40983;SDS011;26714;51.332;12.406;2023-08-31T10:27:18;5.45;;;2.22;;
40983;SDS011;26714;51.332;12.406;2023-08-31T10:29:44;4.30;;;1.80;;
40983;SDS011;26714;51.332;12.406;2023-08-31T10:32:09;5.07;;;1.95;;
40983;SDS011;26714;51.332;12.406;2023-08-31T10:34:35;5.60;;;2.17;;
40983;SDS011;26714;51.332;12.406;2023-08-31T10:37:19;5.78;;;1.95;;
40983;SDS011;26714;51.332;12.406;2023-08-31T10:39:44;3.88;;;2.00;;
40983;SDS011;26714;51.332;12.406;2023-08-31T10:42:10;4.45;;;1.55;;
40983;SDS011;26714;51.332;12.406;2023-08-31T10:44:37;6.80;;;1.90;;
40983;SDS011;26714;51.332;12.406;2023-08-31T10:47:05;2.92;;;1.42;;
40983;SDS011;26714;51.332;12.406;2023-08-31T10:52:14;5.72;;;1.60;;
40983;SDS011;26714;51.332;12.406;2023-08-31T10:54:45;3.20;;;1.25;;
40983;SDS011;26714;51.332;12.406;2023-08-31T10:57:11;3.20;;;1.45;;
40983;SDS011;26714;51.332;12.406;2023-08-31T11:02:10;5.10;;;1.55;;
40983;SDS011;26714;51.332;12.406;2023-08-31T11:04:52;3.33;;;1.33;;
40983;SDS011;26714;51.332;12.406;2023-08-31T11:07:19;2.33;;;1.15;;
40983;SDS011;26714;51.332;12.406;2023-08-31T11:09:48;3.42;;;1.30;;
40983;SDS011;26714;51.332;12.406;2023-08-31T11:12:14;9.90;;;1.42;;
40983;SDS011;26714;51.332;12.406;2023-08-31T11:14:40;3.42;;;1.45;;
40983;SDS011;26714;51.332;12.406;2023-08-31T11:17:06;3.38;;;1.40;;
40983;SDS011;26714;51.332;12.406;2023-08-31T11:19:32;5.28;;;1.30;;
40983;SDS011;26714;51.332;12.406;2023-08-31T11:22:02;3.90;;;1.50;;
40983;SDS011;26714;51.332;12.406;2023-08-31T11:24:31;3.38;;;1.33;;
40983;SDS011;26714;51.332;12.406;2023-08-31T11:26:57;5.13;;;1.33;;
40983;SDS011;26714;51.332;12.406;2023-08-31T11:29:23;2.63;;;1.17;;
40983;SDS011;26714;51.332;12.406;2023-08-31T11:31:49;3.28;;;1.30;;
40983;SDS011;26714;51.332;12.406;2023-08-31T11:34:15;3.63;;;1.40;;
40983;SDS011;26714;51.332;12.406;2023-08-31T11:36:42;2.80;;;1.20;;
40983;SDS011;26714;51.332;12.406;2023-08-31T11:39:10;4.32;;;1.48;;
40983;SDS011;26714;51.332;12.406;2023-08-31T11:41:36;3.50;;;1.40;;
40983;SDS011;26714;51.332;12.406;2023-08-31T11:44:07;2.80;;;0.90;;
40983;SDS011;26714;51.332;12.406;2023-08-31T11:46:33;5.45;;;1.20;;
40983;SDS011;26714;51.332;12.406;2023-08-31T11:49:02;4.43;;;1.30;;
40983;SDS011;26714;51.332;12.406;2023-08-31T11:51:32;3.90;;;0.93;;
40983;SDS011;26714;51.332;12.406;2023-08-31T11:54:02;3.97;;;1.42;;
40983;SDS011;26714;51.332;12.406;2023-08-31T11:56:46;3.00;;;1.20;;
40983;SDS011;26714;51.332;12.406;2023-08-31T11:59:17;2.30;;;0.95;;
40983;SDS011;26714;51.332;12.406;2023-08-31T12:01:45;3.58;;;1.10;;
40983;SDS011;26714;51.332;12.406;2023-08-31T12:04:11;7.82;;;1.25;;
40983;SDS011;26714;51.332;12.406;2023-08-31T12:06:37;4.28;;;1.20;;
40983;SDS011;26714;51.332;12.406;2023-08-31T12:09:04;2.60;;;1.20;;
40983;SDS011;26714;51.332;12.406;2023-08-31T12:11:29;5.50;;;1.10;;
40983;SDS011;26714;51.332;12.406;2023-08-31T12:13:59;3.42;;;1.27;;
40983;SDS011;26714;51.332;12.406;2023-08-31T12:16:24;3.47;;;1.30;;
40983;SDS011;26714;51.332;12.406;2023-08-31T12:18:50;3.15;;;1.45;;
40983;SDS011;26714;51.332;12.406;2023-08-31T12:21:19;3.88;;;1.50;;
40983;SDS011;26714;51.332;12.406;2023-08-31T12:23:44;3.33;;;1.17;;
40983;SDS011;26714;51.332;12.406;2023-08-31T12:26:11;4.28;;;1.27;;
40983;SDS011;26714;51.332;12.406;2023-08-31T12:28:36;5.53;;;1.60;;
40983;SDS011;26714;51.332;12.406;2023-08-31T12:31:02;4.20;;;1.40;;
40983;SDS011;26714;51.332;12.406;2023-08-31T12:33:29;3.00;;;1.27;;
40983;SDS011;26714;51.332;12.406;2023-08-31T12:35:55;3.10;;;1.25;;
40983;SDS011;26714;51.332;12.406;2023-08-31T12:38:21;6.45;;;1.20;;
40983;SDS011;26714;51.332;12.406;2023-08-31T12:40:48;6.30;;;1.42;;
40983;SDS011;26714;51.332;12.406;2023-08-31T12:43:13;5.38;;;1.35;;
40983;SDS011;26714;51.332;12.406;2023-08-31T12:45:39;2.30;;;1.02;;
40983;SDS011;26714;51.332;12.406;2023-08-31T12:48:05;3.10;;;1.10;;
40983;SDS011;26714;51.332;12.406;2023-08-31T12:50:30;2.95;;;1.30;;
40983;SDS011;26714;51.332;12.406;2023-08-31T12:52:56;6.63;;;1.17;;
40983;SDS011;26714;51.332;12.406;2023-08-31T12:55:21;2.63;;;1.00;;
40983;SDS011;26714;51.332;12.406;2023-08-31T12:57:47;8.88;;;1.10;;
40983;SDS011;26714;51.332;12.406;2023-08-31T13:00:14;2.92;;;1.10;;
40983;SDS011;26714;51.332;12.406;2023-08-31T13:02:40;2.45;;;0.90;;
40983;SDS011;26714;51.332;12.406;2023-08-31T13:05:07;3.72;;;1.02;;
40983;SDS011;26714;51.332;12.406;2023-08-31T13:07:34;3.22;;;1.20;;
40983;SDS011;26714;51.332;12.406;2023-08-31T13:10:00;3.95;;;0.95;;
40983;SDS011;26714;51.332;12.406;2023-08-31T13:15:00;3.58;;;1.10;;
40983;SDS011;26714;51.332;12.406;2023-08-31T13:17:29;2.53;;;0.90;;
40983;SDS011;26714;51.332;12.406;2023-08-31T13:19:56;5.65;;;0.85;;
40983;SDS011;26714;51.332;12.406;2023-08-31T13:22:22;1.45;;;0.77;;
40983;SDS011;26714;51.332;12.406;2023-08-31T13:24:48;3.38;;;1.27;;
40983;SDS011;26714;51.332;12.406;2023-08-31T13:27:14;6.22;;;1.08;;
40983;SDS011;26714;51.332;12.406;2023-08-31T13:29:40;3.25;;;1.08;;
40983;SDS011;26714;51.332;12.406;2023-08-31T13:32:05;3.13;;;1.23;;
40983;SDS011;26714;51.332;12.406;2023-08-31T13:34:36;3.90;;;1.52;;
40983;SDS011;26714;51.332;12.406;2023-08-31T13:37:02;4.45;;;0.93;;
40983;SDS011;26714;51.332;12.406;2023-08-31T13:39:31;2.75;;;1.00;;
40983;SDS011;26714;51.332;12.406;2023-08-31T13:41:57;1.63;;;0.82;;
40983;SDS011;26714;51.332;12.406;2023-08-31T13:44:22;3.35;;;1.60;;
40983;SDS011;26714;51.332;12.406;2023-08-31T13:46:48;2.90;;;1.02;;
40983;SDS011;26714;51.332;12.406;2023-08-31T13:49:14;1.95;;;0.80;;
40983;SDS011;26714;51.332;12.406;2023-08-31T13:51:40;1.85;;;0.80;;
40983;SDS011;26714;51.332;12.406;2023-08-31T13:54:06;3.42;;;1.00;;
40983;SDS011;26714;51.332;12.406;2023-08-31T13:56:32;2.60;;;0.90;;
40983;SDS011;26714;51.332;12.406;2023-08-31T13:58:58;2.25;;;1.00;;
40983;SDS011;26714;51.332;12.406;2023-08-31T14:01:24;4.65;;;0.80;;
40983;SDS011;26714;51.332;12.406;2023-08-31T14:03:50;4.28;;;1.23;;
40983;SDS011;26714;51.332;12.406;2023-08-31T14:06:15;3.72;;;1.10;;
40983;SDS011;26714;51.332;12.406;2023-08-31T14:08:41;2.30;;;1.10;;
40983;SDS011;26714;51.332;12.406;2023-08-31T14:11:07;3.45;;;1.00;;
40983;SDS011;26714;51.332;12.406;2023-08-31T14:13:33;1.58;;;0.82;;
40983;SDS011;26714;51.332;12.406;2023-08-31T14:16:02;3.97;;;1.02;;
40983;SDS011;26714;51.332;12.406;2023-08-31T14:18:28;5.70;;;1.30;;
40983;SDS011;26714;51.332;12.406;2023-08-31T14:21:00;5.00;;;1.20;;
40983;SDS011;26714;51.332;12.406;2023-08-31T14:23:26;6.45;;;1.90;;
40983;SDS011;26714;51.332;12.406;2023-08-31T14:25:52;4.30;;;1.10;;
40983;SDS011;26714;51.332;12.406;2023-08-31T14:28:17;2.67;;;1.33;;
40983;SDS011;26714;51.332;12.406;2023-08-31T14:30:43;2.83;;;1.10;;
40983;SDS011;26714;51.332;12.406;2023-08-31T14:33:09;2.25;;;1.00;;
40983;SDS011;26714;51.332;12.406;2023-08-31T14:35:37;2.92;;;1.10;;
40983;SDS011;26714;51.332;12.406;2023-08-31T14:38:03;1.38;;;0.70;;
40983;SDS011;26714;51.332;12.406;2023-08-31T14:40:29;7.05;;;1.10;;
40983;SDS011;26714;51.332;12.406;2023-08-31T14:42:54;3.80;;;0.90;;
40983;SDS011;26714;51.332;12.406;2023-08-31T14:45:20;3.13;;;1.20;;
40983;SDS011;26714;51.332;12.406;2023-08-31T14:47:46;3.33;;;1.33;;
40983;SDS011;26714;51.332;12.406;2023-08-31T14:50:11;3.45;;;1.00;;
40983;SDS011;26714;51.332;12.406;2023-08-31T14:52:37;2.70;;;1.10;;
40983;SDS011;26714;51.332;12.406;2023-08-31T14:55:02;5.78;;;3.58;;
40983;SDS011;26714;51.332;12.406;2023-08-31T14:57:29;3.60;;;1.55;;
40983;SDS011;26714;51.332;12.406;2023-08-31T14:59:55;3.45;;;1.20;;
40983;SDS011;26714;51.332;12.406;2023-08-31T15:02:24;3.67;;;1.35;;